sensor_id;sensor_type;location;lat;lon;timestamp;P1;durP1;ratioP1;P2;durP2;ratioP2
69246;SDS011;56358;56.328;43.992;2023-07-24T00:00:54;6.03;;;3.20;;
69246;SDS011;56358;56.328;43.992;2023-07-24T00:02:55;7.53;;;3.10;;
69246;SDS011;56358;56.328;43.992;2023-07-24T00:04:56;5.18;;;2.90;;
69246;SDS011;56358;56.328;43.992;2023-07-24T00:06:57;6.22;;;3.20;;
69246;SDS011;56358;56.328;43.992;2023-07-24T00:08:58;5.07;;;2.97;;
69246;SDS011;56358;56.328;43.992;2023-07-24T00:10:59;5.15;;;3.05;;
69246;SDS011;56358;56.328;43.992;2023-07-24T00:13:00;4.40;;;2.50;;
69246;SDS011;56358;56.328;43.992;2023-07-24T00:15:01;5.07;;;2.80;;
69246;SDS011;56358;56.328;43.992;2023-07-24T00:17:07;4.43;;;2.90;;
69246;SDS011;56358;56.328;43.992;2023-07-24T00:19:08;3.28;;;2.55;;
69246;SDS011;56358;56.328;43.992;2023-07-24T00:21:09;4.18;;;2.78;;
69246;SDS011;56358;56.328;43.992;2023-07-24T00:23:10;6.30;;;3.17;;
69246;SDS011;56358;56.328;43.992;2023-07-24T00:25:11;5.18;;;3.13;;
69246;SDS011;56358;56.328;43.992;2023-07-24T00:27:12;4.07;;;2.70;;
69246;SDS011;56358;56.328;43.992;2023-07-24T00:29:14;4.38;;;2.65;;
69246;SDS011;56358;56.328;43.992;2023-07-24T00:31:14;3.67;;;2.53;;
69246;SDS011;56358;56.328;43.992;2023-07-24T00:33:15;3.45;;;2.20;;
69246;SDS011;56358;56.328;43.992;2023-07-24T00:35:16;4.78;;;2.67;;
69246;SDS011;56358;56.328;43.992;2023-07-24T00:37:16;3.85;;;2.67;;
69246;SDS011;56358;56.328;43.992;2023-07-24T00:39:17;4.07;;;2.58;;
69246;SDS011;56358;56.328;43.992;2023-07-24T00:41:18;4.28;;;2.35;;
69246;SDS011;56358;56.328;43.992;2023-07-24T00:43:19;3.97;;;2.33;;
69246;SDS011;56358;56.328;43.992;2023-07-24T00:45:19;4.57;;;2.70;;
69246;SDS011;56358;56.328;43.992;2023-07-24T00:47:22;3.75;;;2.42;;
69246;SDS011;56358;56.328;43.992;2023-07-24T00:49:25;3.35;;;2.47;;
69246;SDS011;56358;56.328;43.992;2023-07-24T00:51:26;6.30;;;2.83;;
69246;SDS011;56358;56.328;43.992;2023-07-24T00:53:28;6.40;;;2.60;;
69246;SDS011;56358;56.328;43.992;2023-07-24T00:55:28;4.40;;;2.85;;
69246;SDS011;56358;56.328;43.992;2023-07-24T00:57:29;3.92;;;2.60;;
69246;SDS011;56358;56.328;43.992;2023-07-24T00:59:32;4.07;;;2.60;;
69246;SDS011;56358;56.328;43.992;2023-07-24T01:01:33;6.15;;;2.70;;
69246;SDS011;56358;56.328;43.992;2023-07-24T01:03:34;4.32;;;2.70;;
69246;SDS011;56358;56.328;43.992;2023-07-24T01:05:35;5.30;;;2.55;;
69246;SDS011;56358;56.328;43.992;2023-07-24T01:07:36;4.38;;;2.75;;
69246;SDS011;56358;56.328;43.992;2023-07-24T01:09:37;4.65;;;2.55;;
69246;SDS011;56358;56.328;43.992;2023-07-24T01:11:47;5.00;;;2.70;;
69246;SDS011;56358;56.328;43.992;2023-07-24T01:16:23;4.47;;;2.50;;
69246;SDS011;56358;56.328;43.992;2023-07-24T01:18:33;4.38;;;2.47;;
69246;SDS011;56358;56.328;43.992;2023-07-24T01:20:38;4.43;;;2.50;;
69246;SDS011;56358;56.328;43.992;2023-07-24T01:27:23;5.43;;;2.60;;
69246;SDS011;56358;56.328;43.992;2023-07-24T01:29:24;4.18;;;2.67;;
69246;SDS011;56358;56.328;43.992;2023-07-24T01:31:25;5.20;;;3.03;;
69246;SDS011;56358;56.328;43.992;2023-07-24T01:33:26;4.50;;;2.42;;
69246;SDS011;56358;56.328;43.992;2023-07-24T01:35:27;5.63;;;2.88;;
69246;SDS011;56358;56.328;43.992;2023-07-24T01:37:28;5.13;;;2.58;;
69246;SDS011;56358;56.328;43.992;2023-07-24T01:39:29;4.28;;;2.70;;
69246;SDS011;56358;56.328;43.992;2023-07-24T01:41:30;3.85;;;2.47;;
69246;SDS011;56358;56.328;43.992;2023-07-24T01:43:31;4.13;;;2.58;;
69246;SDS011;56358;56.328;43.992;2023-07-24T01:45:34;3.88;;;2.85;;
69246;SDS011;56358;56.328;43.992;2023-07-24T01:47:36;5.72;;;3.03;;
69246;SDS011;56358;56.328;43.992;2023-07-24T01:49:37;3.72;;;2.58;;
69246;SDS011;56358;56.328;43.992;2023-07-24T01:51:38;4.38;;;2.75;;
69246;SDS011;56358;56.328;43.992;2023-07-24T01:53:38;4.55;;;2.63;;
69246;SDS011;56358;56.328;43.992;2023-07-24T01:55:39;5.97;;;2.80;;
69246;SDS011;56358;56.328;43.992;2023-07-24T01:57:40;5.85;;;3.10;;
69246;SDS011;56358;56.328;43.992;2023-07-24T01:59:40;4.20;;;2.67;;
69246;SDS011;56358;56.328;43.992;2023-07-24T02:01:41;3.97;;;2.85;;
69246;SDS011;56358;56.328;43.992;2023-07-24T02:03:42;5.78;;;2.80;;
69246;SDS011;56358;56.328;43.992;2023-07-24T02:05:48;4.80;;;3.00;;
69246;SDS011;56358;56.328;43.992;2023-07-24T02:07:51;5.38;;;3.20;;
69246;SDS011;56358;56.328;43.992;2023-07-24T02:09:51;4.93;;;2.97;;
69246;SDS011;56358;56.328;43.992;2023-07-24T02:11:52;5.28;;;3.25;;
69246;SDS011;56358;56.328;43.992;2023-07-24T02:13:53;5.03;;;3.50;;
69246;SDS011;56358;56.328;43.992;2023-07-24T02:15:54;4.93;;;3.28;;
69246;SDS011;56358;56.328;43.992;2023-07-24T02:17:55;5.18;;;3.17;;
69246;SDS011;56358;56.328;43.992;2023-07-24T02:19:56;6.38;;;3.40;;
69246;SDS011;56358;56.328;43.992;2023-07-24T02:21:57;5.43;;;3.40;;
69246;SDS011;56358;56.328;43.992;2023-07-24T02:23:57;5.38;;;3.53;;
69246;SDS011;56358;56.328;43.992;2023-07-24T02:25:58;7.25;;;3.60;;
69246;SDS011;56358;56.328;43.992;2023-07-24T02:27:59;4.75;;;3.55;;
69246;SDS011;56358;56.328;43.992;2023-07-24T02:30:00;7.32;;;3.72;;
69246;SDS011;56358;56.328;43.992;2023-07-24T02:32:01;7.50;;;4.20;;
69246;SDS011;56358;56.328;43.992;2023-07-24T02:34:02;5.95;;;3.80;;
69246;SDS011;56358;56.328;43.992;2023-07-24T02:36:03;6.20;;;4.35;;
69246;SDS011;56358;56.328;43.992;2023-07-24T02:38:03;8.70;;;4.20;;
69246;SDS011;56358;56.328;43.992;2023-07-24T02:40:05;7.53;;;4.40;;
69246;SDS011;56358;56.328;43.992;2023-07-24T02:42:07;7.55;;;4.03;;
69246;SDS011;56358;56.328;43.992;2023-07-24T02:44:08;6.78;;;4.38;;
69246;SDS011;56358;56.328;43.992;2023-07-24T02:46:08;7.55;;;4.07;;
69246;SDS011;56358;56.328;43.992;2023-07-24T02:48:09;7.15;;;4.30;;
69246;SDS011;56358;56.328;43.992;2023-07-24T02:50:10;6.95;;;4.35;;
69246;SDS011;56358;56.328;43.992;2023-07-24T02:52:10;10.20;;;4.68;;
69246;SDS011;56358;56.328;43.992;2023-07-24T02:54:11;8.75;;;5.15;;
69246;SDS011;56358;56.328;43.992;2023-07-24T02:56:12;6.50;;;4.28;;
69246;SDS011;56358;56.328;43.992;2023-07-24T02:58:13;7.45;;;4.35;;
69246;SDS011;56358;56.328;43.992;2023-07-24T03:00:14;6.53;;;4.35;;
69246;SDS011;56358;56.328;43.992;2023-07-24T03:02:15;9.30;;;4.85;;
69246;SDS011;56358;56.328;43.992;2023-07-24T03:04:15;8.43;;;4.70;;
69246;SDS011;56358;56.328;43.992;2023-07-24T03:06:16;9.20;;;4.68;;
69246;SDS011;56358;56.328;43.992;2023-07-24T03:08:17;8.80;;;4.90;;
69246;SDS011;56358;56.328;43.992;2023-07-24T03:10:17;8.40;;;4.90;;
69246;SDS011;56358;56.328;43.992;2023-07-24T03:12:20;6.75;;;4.30;;
69246;SDS011;56358;56.328;43.992;2023-07-24T03:14:20;8.50;;;4.78;;
69246;SDS011;56358;56.328;43.992;2023-07-24T03:16:21;8.25;;;4.45;;
69246;SDS011;56358;56.328;43.992;2023-07-24T03:18:22;9.70;;;4.50;;
69246;SDS011;56358;56.328;43.992;2023-07-24T03:20:23;7.72;;;5.38;;
69246;SDS011;56358;56.328;43.992;2023-07-24T03:22:23;7.00;;;4.97;;
69246;SDS011;56358;56.328;43.992;2023-07-24T03:24:24;8.77;;;4.97;;
69246;SDS011;56358;56.328;43.992;2023-07-24T03:26:25;9.50;;;5.20;;
69246;SDS011;56358;56.328;43.992;2023-07-24T03:28:25;9.20;;;5.72;;
69246;SDS011;56358;56.328;43.992;2023-07-24T03:30:27;9.18;;;5.65;;
69246;SDS011;56358;56.328;43.992;2023-07-24T03:32:28;9.10;;;5.53;;
69246;SDS011;56358;56.328;43.992;2023-07-24T03:34:28;10.55;;;5.93;;
69246;SDS011;56358;56.328;43.992;2023-07-24T03:36:29;10.88;;;5.70;;
69246;SDS011;56358;56.328;43.992;2023-07-24T03:38:30;10.30;;;6.03;;
69246;SDS011;56358;56.328;43.992;2023-07-24T03:40:30;9.02;;;5.75;;
69246;SDS011;56358;56.328;43.992;2023-07-24T03:42:31;9.95;;;6.38;;
69246;SDS011;56358;56.328;43.992;2023-07-24T03:44:32;10.90;;;7.10;;
69246;SDS011;56358;56.328;43.992;2023-07-24T03:46:33;10.85;;;6.80;;
69246;SDS011;56358;56.328;43.992;2023-07-24T03:48:34;9.38;;;6.35;;
69246;SDS011;56358;56.328;43.992;2023-07-24T03:50:37;9.50;;;5.93;;
69246;SDS011;56358;56.328;43.992;2023-07-24T03:52:38;9.70;;;6.18;;
69246;SDS011;56358;56.328;43.992;2023-07-24T03:54:39;10.23;;;6.40;;
69246;SDS011;56358;56.328;43.992;2023-07-24T03:56:40;11.88;;;7.30;;
69246;SDS011;56358;56.328;43.992;2023-07-24T03:58:40;9.25;;;6.53;;
69246;SDS011;56358;56.328;43.992;2023-07-24T04:00:41;9.23;;;6.32;;
69246;SDS011;56358;56.328;43.992;2023-07-24T04:02:41;11.05;;;6.85;;
69246;SDS011;56358;56.328;43.992;2023-07-24T04:04:42;11.88;;;6.35;;
69246;SDS011;56358;56.328;43.992;2023-07-24T04:06:43;12.63;;;6.63;;
69246;SDS011;56358;56.328;43.992;2023-07-24T04:08:46;12.60;;;6.33;;
69246;SDS011;56358;56.328;43.992;2023-07-24T04:10:46;10.93;;;6.40;;
69246;SDS011;56358;56.328;43.992;2023-07-24T04:12:47;12.15;;;6.75;;
69246;SDS011;56358;56.328;43.992;2023-07-24T04:14:47;12.80;;;7.00;;
69246;SDS011;56358;56.328;43.992;2023-07-24T04:16:49;9.13;;;6.43;;
69246;SDS011;56358;56.328;43.992;2023-07-24T04:18:50;11.07;;;6.30;;
69246;SDS011;56358;56.328;43.992;2023-07-24T04:20:50;11.55;;;6.55;;
69246;SDS011;56358;56.328;43.992;2023-07-24T04:22:51;12.30;;;6.57;;
69246;SDS011;56358;56.328;43.992;2023-07-24T04:24:52;12.77;;;7.13;;
69246;SDS011;56358;56.328;43.992;2023-07-24T04:26:52;11.52;;;6.90;;
69246;SDS011;56358;56.328;43.992;2023-07-24T04:28:53;15.15;;;7.65;;
69246;SDS011;56358;56.328;43.992;2023-07-24T04:30:54;12.23;;;7.15;;
69246;SDS011;56358;56.328;43.992;2023-07-24T04:32:54;10.10;;;6.65;;
69246;SDS011;56358;56.328;43.992;2023-07-24T04:34:55;12.85;;;7.25;;
69246;SDS011;56358;56.328;43.992;2023-07-24T04:36:56;10.68;;;6.32;;
69246;SDS011;56358;56.328;43.992;2023-07-24T04:38:56;15.80;;;7.18;;
69246;SDS011;56358;56.328;43.992;2023-07-24T04:40:57;10.32;;;6.35;;
69246;SDS011;56358;56.328;43.992;2023-07-24T04:43:00;9.88;;;6.45;;
69246;SDS011;56358;56.328;43.992;2023-07-24T04:45:02;11.32;;;6.93;;
69246;SDS011;56358;56.328;43.992;2023-07-24T04:47:06;19.95;;;7.10;;
69246;SDS011;56358;56.328;43.992;2023-07-24T04:49:07;19.27;;;7.65;;
69246;SDS011;56358;56.328;43.992;2023-07-24T04:51:07;13.90;;;7.68;;
69246;SDS011;56358;56.328;43.992;2023-07-24T04:53:08;13.00;;;7.45;;
69246;SDS011;56358;56.328;43.992;2023-07-24T04:55:09;12.60;;;7.45;;
69246;SDS011;56358;56.328;43.992;2023-07-24T04:57:09;11.55;;;7.68;;
69246;SDS011;56358;56.328;43.992;2023-07-24T04:59:10;14.80;;;8.45;;
69246;SDS011;56358;56.328;43.992;2023-07-24T05:01:11;17.48;;;9.52;;
69246;SDS011;56358;56.328;43.992;2023-07-24T05:03:11;13.82;;;8.13;;
69246;SDS011;56358;56.328;43.992;2023-07-24T05:05:12;15.10;;;9.00;;
69246;SDS011;56358;56.328;43.992;2023-07-24T05:07:13;13.07;;;8.60;;
69246;SDS011;56358;56.328;43.992;2023-07-24T05:09:14;14.55;;;9.13;;
69246;SDS011;56358;56.328;43.992;2023-07-24T05:11:14;15.30;;;8.80;;
69246;SDS011;56358;56.328;43.992;2023-07-24T05:13:15;13.98;;;7.40;;
69246;SDS011;56358;56.328;43.992;2023-07-24T05:15:16;12.77;;;7.38;;
69246;SDS011;56358;56.328;43.992;2023-07-24T05:17:17;16.02;;;8.98;;
69246;SDS011;56358;56.328;43.992;2023-07-24T05:19:18;13.68;;;8.10;;
69246;SDS011;56358;56.328;43.992;2023-07-24T05:21:19;12.27;;;7.47;;
69246;SDS011;56358;56.328;43.992;2023-07-24T05:23:19;11.95;;;7.55;;
69246;SDS011;56358;56.328;43.992;2023-07-24T05:25:20;15.10;;;8.55;;
69246;SDS011;56358;56.328;43.992;2023-07-24T05:27:21;12.10;;;7.28;;
69246;SDS011;56358;56.328;43.992;2023-07-24T05:29:22;15.55;;;8.68;;
69246;SDS011;56358;56.328;43.992;2023-07-24T05:31:22;11.45;;;7.22;;
69246;SDS011;56358;56.328;43.992;2023-07-24T05:33:23;10.10;;;6.57;;
69246;SDS011;56358;56.328;43.992;2023-07-24T05:35:24;9.75;;;6.25;;
69246;SDS011;56358;56.328;43.992;2023-07-24T05:37:25;11.77;;;6.88;;
69246;SDS011;56358;56.328;43.992;2023-07-24T05:39:25;10.52;;;6.30;;
69246;SDS011;56358;56.328;43.992;2023-07-24T05:41:26;10.57;;;6.10;;
69246;SDS011;56358;56.328;43.992;2023-07-24T05:43:27;10.93;;;5.90;;
69246;SDS011;56358;56.328;43.992;2023-07-24T05:45:28;8.60;;;5.60;;
69246;SDS011;56358;56.328;43.992;2023-07-24T05:47:29;10.10;;;6.35;;
69246;SDS011;56358;56.328;43.992;2023-07-24T05:49:29;9.40;;;5.68;;
69246;SDS011;56358;56.328;43.992;2023-07-24T05:51:30;9.50;;;5.80;;
69246;SDS011;56358;56.328;43.992;2023-07-24T05:53:31;8.88;;;5.45;;
69246;SDS011;56358;56.328;43.992;2023-07-24T05:55:31;7.70;;;4.50;;
69246;SDS011;56358;56.328;43.992;2023-07-24T05:57:32;6.93;;;4.65;;
69246;SDS011;56358;56.328;43.992;2023-07-24T05:59:33;8.60;;;5.35;;
69246;SDS011;56358;56.328;43.992;2023-07-24T06:01:33;9.55;;;5.28;;
69246;SDS011;56358;56.328;43.992;2023-07-24T06:03:34;7.10;;;4.65;;
69246;SDS011;56358;56.328;43.992;2023-07-24T06:05:35;6.90;;;4.30;;
69246;SDS011;56358;56.328;43.992;2023-07-24T06:07:35;8.10;;;4.85;;
69246;SDS011;56358;56.328;43.992;2023-07-24T06:09:36;7.03;;;4.82;;
69246;SDS011;56358;56.328;43.992;2023-07-24T06:11:37;8.65;;;4.40;;
69246;SDS011;56358;56.328;43.992;2023-07-24T06:13:37;6.53;;;4.60;;
69246;SDS011;56358;56.328;43.992;2023-07-24T06:15:38;6.25;;;3.90;;
69246;SDS011;56358;56.328;43.992;2023-07-24T06:17:39;7.88;;;4.03;;
69246;SDS011;56358;56.328;43.992;2023-07-24T06:19:39;7.35;;;4.40;;
69246;SDS011;56358;56.328;43.992;2023-07-24T06:21:40;6.70;;;4.38;;
69246;SDS011;56358;56.328;43.992;2023-07-24T06:23:41;8.48;;;4.03;;
69246;SDS011;56358;56.328;43.992;2023-07-24T06:25:42;7.60;;;4.38;;
69246;SDS011;56358;56.328;43.992;2023-07-24T06:27:42;7.15;;;4.00;;
69246;SDS011;56358;56.328;43.992;2023-07-24T06:29:43;7.15;;;4.30;;
69246;SDS011;56358;56.328;43.992;2023-07-24T06:31:44;7.45;;;4.03;;
69246;SDS011;56358;56.328;43.992;2023-07-24T06:33:44;6.70;;;4.07;;
69246;SDS011;56358;56.328;43.992;2023-07-24T06:35:45;6.50;;;4.00;;
69246;SDS011;56358;56.328;43.992;2023-07-24T06:37:46;7.10;;;3.70;;
69246;SDS011;56358;56.328;43.992;2023-07-24T06:39:47;5.40;;;3.83;;
69246;SDS011;56358;56.328;43.992;2023-07-24T06:41:47;7.47;;;3.70;;
69246;SDS011;56358;56.328;43.992;2023-07-24T06:43:48;5.53;;;3.70;;
69246;SDS011;56358;56.328;43.992;2023-07-24T06:45:49;7.05;;;3.70;;
69246;SDS011;56358;56.328;43.992;2023-07-24T06:47:50;7.13;;;3.88;;
69246;SDS011;56358;56.328;43.992;2023-07-24T06:49:52;8.88;;;5.07;;
69246;SDS011;56358;56.328;43.992;2023-07-24T06:51:53;5.63;;;3.90;;
69246;SDS011;56358;56.328;43.992;2023-07-24T06:53:53;6.57;;;3.63;;
69246;SDS011;56358;56.328;43.992;2023-07-24T06:55:54;8.52;;;3.88;;
69246;SDS011;56358;56.328;43.992;2023-07-24T06:57:55;5.50;;;3.80;;
69246;SDS011;56358;56.328;43.992;2023-07-24T06:59:55;7.72;;;4.30;;
69246;SDS011;56358;56.328;43.992;2023-07-24T07:01:56;9.23;;;4.13;;
69246;SDS011;56358;56.328;43.992;2023-07-24T07:03:57;6.75;;;3.60;;
69246;SDS011;56358;56.328;43.992;2023-07-24T07:06:01;7.35;;;3.80;;
69246;SDS011;56358;56.328;43.992;2023-07-24T07:08:02;6.70;;;4.38;;
69246;SDS011;56358;56.328;43.992;2023-07-24T07:10:04;7.45;;;3.83;;
69246;SDS011;56358;56.328;43.992;2023-07-24T07:12:05;7.28;;;3.90;;
69246;SDS011;56358;56.328;43.992;2023-07-24T07:14:06;7.70;;;4.05;;
69246;SDS011;56358;56.328;43.992;2023-07-24T07:16:09;6.63;;;3.85;;
69246;SDS011;56358;56.328;43.992;2023-07-24T07:18:10;8.40;;;3.92;;
69246;SDS011;56358;56.328;43.992;2023-07-24T07:20:10;5.90;;;3.58;;
69246;SDS011;56358;56.328;43.992;2023-07-24T07:22:11;8.68;;;4.03;;
69246;SDS011;56358;56.328;43.992;2023-07-24T07:24:12;6.75;;;4.38;;
69246;SDS011;56358;56.328;43.992;2023-07-24T07:26:12;6.72;;;4.07;;
69246;SDS011;56358;56.328;43.992;2023-07-24T07:28:13;6.55;;;3.92;;
69246;SDS011;56358;56.328;43.992;2023-07-24T07:30:15;5.95;;;3.92;;
69246;SDS011;56358;56.328;43.992;2023-07-24T07:32:16;7.90;;;3.83;;
69246;SDS011;56358;56.328;43.992;2023-07-24T07:34:17;6.57;;;4.00;;
69246;SDS011;56358;56.328;43.992;2023-07-24T07:36:17;11.60;;;4.25;;
69246;SDS011;56358;56.328;43.992;2023-07-24T07:38:18;7.90;;;4.38;;
69246;SDS011;56358;56.328;43.992;2023-07-24T07:40:19;6.20;;;3.60;;
69246;SDS011;56358;56.328;43.992;2023-07-24T07:42:19;7.70;;;3.80;;
69246;SDS011;56358;56.328;43.992;2023-07-24T07:44:20;6.43;;;3.95;;
69246;SDS011;56358;56.328;43.992;2023-07-24T07:46:21;6.35;;;3.72;;
69246;SDS011;56358;56.328;43.992;2023-07-24T07:48:22;6.57;;;3.90;;
69246;SDS011;56358;56.328;43.992;2023-07-24T07:50:22;6.35;;;3.92;;
69246;SDS011;56358;56.328;43.992;2023-07-24T07:52:23;7.03;;;3.60;;
69246;SDS011;56358;56.328;43.992;2023-07-24T07:54:24;7.18;;;3.90;;
69246;SDS011;56358;56.328;43.992;2023-07-24T07:56:25;5.85;;;3.92;;
69246;SDS011;56358;56.328;43.992;2023-07-24T07:58:25;5.93;;;3.50;;
69246;SDS011;56358;56.328;43.992;2023-07-24T08:00:26;8.93;;;5.13;;
69246;SDS011;56358;56.328;43.992;2023-07-24T08:02:27;6.95;;;3.88;;
69246;SDS011;56358;56.328;43.992;2023-07-24T08:04:27;9.00;;;3.75;;
69246;SDS011;56358;56.328;43.992;2023-07-24T08:06:28;6.13;;;3.65;;
69246;SDS011;56358;56.328;43.992;2023-07-24T08:08:29;10.38;;;3.97;;
69246;SDS011;56358;56.328;43.992;2023-07-24T08:10:29;5.82;;;3.40;;
69246;SDS011;56358;56.328;43.992;2023-07-24T08:12:30;4.90;;;3.40;;
69246;SDS011;56358;56.328;43.992;2023-07-24T08:14:31;8.00;;;3.60;;
69246;SDS011;56358;56.328;43.992;2023-07-24T08:16:31;6.20;;;3.55;;
69246;SDS011;56358;56.328;43.992;2023-07-24T08:18:32;6.05;;;2.90;;
69246;SDS011;56358;56.328;43.992;2023-07-24T08:20:34;5.75;;;3.20;;
69246;SDS011;56358;56.328;43.992;2023-07-24T08:22:37;6.82;;;3.15;;
69246;SDS011;56358;56.328;43.992;2023-07-24T08:24:37;5.55;;;2.70;;
69246;SDS011;56358;56.328;43.992;2023-07-24T08:26:38;5.70;;;2.45;;
69246;SDS011;56358;56.328;43.992;2023-07-24T08:28:39;8.13;;;3.13;;
69246;SDS011;56358;56.328;43.992;2023-07-24T08:30:42;5.18;;;3.47;;
69246;SDS011;56358;56.328;43.992;2023-07-24T08:32:43;4.35;;;2.90;;
69246;SDS011;56358;56.328;43.992;2023-07-24T08:34:43;5.65;;;3.05;;
69246;SDS011;56358;56.328;43.992;2023-07-24T08:36:44;8.73;;;3.28;;
69246;SDS011;56358;56.328;43.992;2023-07-24T08:38:45;4.22;;;2.80;;
69246;SDS011;56358;56.328;43.992;2023-07-24T08:40:45;4.93;;;2.20;;
69246;SDS011;56358;56.328;43.992;2023-07-24T08:42:46;4.95;;;2.53;;
69246;SDS011;56358;56.328;43.992;2023-07-24T08:44:49;3.55;;;2.20;;
69246;SDS011;56358;56.328;43.992;2023-07-24T08:46:52;4.28;;;2.40;;
69246;SDS011;56358;56.328;43.992;2023-07-24T08:48:53;4.28;;;2.45;;
69246;SDS011;56358;56.328;43.992;2023-07-24T08:50:55;4.88;;;2.55;;
69246;SDS011;56358;56.328;43.992;2023-07-24T08:52:58;5.05;;;3.20;;
69246;SDS011;56358;56.328;43.992;2023-07-24T08:54:59;4.32;;;2.70;;
69246;SDS011;56358;56.328;43.992;2023-07-24T08:57:06;3.85;;;2.30;;
69246;SDS011;56358;56.328;43.992;2023-07-24T08:59:08;3.90;;;2.70;;
69246;SDS011;56358;56.328;43.992;2023-07-24T09:01:08;6.95;;;2.67;;
69246;SDS011;56358;56.328;43.992;2023-07-24T09:03:10;4.22;;;2.65;;
69246;SDS011;56358;56.328;43.992;2023-07-24T09:05:10;3.28;;;2.25;;
69246;SDS011;56358;56.328;43.992;2023-07-24T09:07:12;6.50;;;3.38;;
69246;SDS011;56358;56.328;43.992;2023-07-24T09:09:14;4.00;;;2.40;;
69246;SDS011;56358;56.328;43.992;2023-07-24T09:11:16;3.67;;;2.47;;
69246;SDS011;56358;56.328;43.992;2023-07-24T09:13:17;5.03;;;2.80;;
69246;SDS011;56358;56.328;43.992;2023-07-24T09:15:17;5.35;;;2.55;;
69246;SDS011;56358;56.328;43.992;2023-07-24T09:17:18;6.03;;;3.85;;
69246;SDS011;56358;56.328;43.992;2023-07-24T09:19:19;7.05;;;3.33;;
69246;SDS011;56358;56.328;43.992;2023-07-24T09:21:29;4.78;;;2.38;;
69246;SDS011;56358;56.328;43.992;2023-07-24T09:23:31;4.68;;;2.40;;
69246;SDS011;56358;56.328;43.992;2023-07-24T09:25:32;4.55;;;2.67;;
69246;SDS011;56358;56.328;43.992;2023-07-24T09:27:34;4.78;;;2.50;;
69246;SDS011;56358;56.328;43.992;2023-07-24T09:29:34;4.03;;;2.63;;
69246;SDS011;56358;56.328;43.992;2023-07-24T09:31:35;5.07;;;2.80;;
69246;SDS011;56358;56.328;43.992;2023-07-24T09:33:38;5.30;;;2.60;;
69246;SDS011;56358;56.328;43.992;2023-07-24T09:35:40;5.75;;;2.53;;
69246;SDS011;56358;56.328;43.992;2023-07-24T09:37:41;4.05;;;2.47;;
69246;SDS011;56358;56.328;43.992;2023-07-24T09:39:41;3.72;;;2.72;;
69246;SDS011;56358;56.328;43.992;2023-07-24T09:41:46;4.28;;;2.72;;
69246;SDS011;56358;56.328;43.992;2023-07-24T09:43:57;4.60;;;2.85;;
69246;SDS011;56358;56.328;43.992;2023-07-24T09:45:58;7.50;;;3.33;;
69246;SDS011;56358;56.328;43.992;2023-07-24T09:47:59;6.25;;;3.30;;
69246;SDS011;56358;56.328;43.992;2023-07-24T09:50:04;7.05;;;3.65;;
69246;SDS011;56358;56.328;43.992;2023-07-24T09:52:07;5.38;;;3.58;;
69246;SDS011;56358;56.328;43.992;2023-07-24T09:56:20;6.35;;;3.40;;
69246;SDS011;56358;56.328;43.992;2023-07-24T09:58:23;9.40;;;4.37;;
69246;SDS011;56358;56.328;43.992;2023-07-24T10:00:24;7.57;;;3.40;;
69246;SDS011;56358;56.328;43.992;2023-07-24T10:02:25;6.65;;;3.33;;
69246;SDS011;56358;56.328;43.992;2023-07-24T10:04:27;3.83;;;2.33;;
69246;SDS011;56358;56.328;43.992;2023-07-24T10:06:29;5.95;;;2.70;;
69246;SDS011;56358;56.328;43.992;2023-07-24T10:08:30;7.72;;;3.05;;
69246;SDS011;56358;56.328;43.992;2023-07-24T10:10:31;4.47;;;2.58;;
69246;SDS011;56358;56.328;43.992;2023-07-24T10:12:32;5.95;;;2.85;;
69246;SDS011;56358;56.328;43.992;2023-07-24T10:14:34;4.35;;;2.72;;
69246;SDS011;56358;56.328;43.992;2023-07-24T10:18:44;3.65;;;2.30;;
69246;SDS011;56358;56.328;43.992;2023-07-24T10:20:46;7.70;;;2.38;;
69246;SDS011;56358;56.328;43.992;2023-07-24T10:22:46;6.63;;;2.53;;
69246;SDS011;56358;56.328;43.992;2023-07-24T10:24:47;9.23;;;2.72;;
69246;SDS011;56358;56.328;43.992;2023-07-24T10:26:48;6.60;;;2.58;;
69246;SDS011;56358;56.328;43.992;2023-07-24T10:28:48;4.30;;;2.50;;
69246;SDS011;56358;56.328;43.992;2023-07-24T10:30:54;10.50;;;5.32;;
69246;SDS011;56358;56.328;43.992;2023-07-24T10:33:09;5.72;;;2.55;;
69246;SDS011;56358;56.328;43.992;2023-07-24T10:35:10;4.80;;;2.67;;
69246;SDS011;56358;56.328;43.992;2023-07-24T10:37:11;5.47;;;1.85;;
69246;SDS011;56358;56.328;43.992;2023-07-24T10:39:15;6.13;;;2.42;;
69246;SDS011;56358;56.328;43.992;2023-07-24T10:41:19;6.57;;;2.80;;
69246;SDS011;56358;56.328;43.992;2023-07-24T10:43:20;5.45;;;3.00;;
69246;SDS011;56358;56.328;43.992;2023-07-24T10:45:21;5.57;;;3.17;;
69246;SDS011;56358;56.328;43.992;2023-07-24T10:47:21;7.07;;;3.20;;
69246;SDS011;56358;56.328;43.992;2023-07-24T10:49:22;9.90;;;4.82;;
69246;SDS011;56358;56.328;43.992;2023-07-24T10:51:23;5.38;;;2.97;;
69246;SDS011;56358;56.328;43.992;2023-07-24T10:53:23;8.65;;;3.58;;
69246;SDS011;56358;56.328;43.992;2023-07-24T10:55:24;6.35;;;2.42;;
69246;SDS011;56358;56.328;43.992;2023-07-24T10:57:26;7.10;;;2.90;;
69246;SDS011;56358;56.328;43.992;2023-07-24T10:59:39;5.00;;;2.53;;
69246;SDS011;56358;56.328;43.992;2023-07-24T11:01:40;5.38;;;2.65;;
69246;SDS011;56358;56.328;43.992;2023-07-24T11:03:42;4.10;;;2.53;;
69246;SDS011;56358;56.328;43.992;2023-07-24T11:05:44;3.97;;;2.15;;
69246;SDS011;56358;56.328;43.992;2023-07-24T11:07:45;4.97;;;2.72;;
69246;SDS011;56358;56.328;43.992;2023-07-24T11:09:46;3.75;;;2.45;;
69246;SDS011;56358;56.328;43.992;2023-07-24T11:11:48;4.60;;;2.80;;
69246;SDS011;56358;56.328;43.992;2023-07-24T11:13:51;6.40;;;2.55;;
69246;SDS011;56358;56.328;43.992;2023-07-24T11:15:52;3.45;;;2.38;;
69246;SDS011;56358;56.328;43.992;2023-07-24T11:17:54;6.90;;;2.20;;
69246;SDS011;56358;56.328;43.992;2023-07-24T11:20:04;4.82;;;2.45;;
69246;SDS011;56358;56.328;43.992;2023-07-24T11:22:08;2.90;;;2.10;;
69246;SDS011;56358;56.328;43.992;2023-07-24T11:24:09;6.00;;;3.38;;
69246;SDS011;56358;56.328;43.992;2023-07-24T11:26:11;6.50;;;2.80;;
69246;SDS011;56358;56.328;43.992;2023-07-24T11:28:12;8.10;;;4.80;;
69246;SDS011;56358;56.328;43.992;2023-07-24T11:30:18;7.18;;;4.05;;
69246;SDS011;56358;56.328;43.992;2023-07-24T11:32:20;7.80;;;3.78;;
69246;SDS011;56358;56.328;43.992;2023-07-24T11:34:22;8.07;;;2.67;;
69246;SDS011;56358;56.328;43.992;2023-07-24T11:36:23;6.15;;;2.40;;
69246;SDS011;56358;56.328;43.992;2023-07-24T11:38:24;3.80;;;2.28;;
69246;SDS011;56358;56.328;43.992;2023-07-24T11:40:35;6.47;;;2.65;;
69246;SDS011;56358;56.328;43.992;2023-07-24T11:42:44;7.22;;;2.85;;
69246;SDS011;56358;56.328;43.992;2023-07-24T11:44:45;4.32;;;2.30;;
69246;SDS011;56358;56.328;43.992;2023-07-24T11:46:45;3.88;;;2.10;;
69246;SDS011;56358;56.328;43.992;2023-07-24T11:48:47;4.00;;;2.13;;
69246;SDS011;56358;56.328;43.992;2023-07-24T11:50:53;7.22;;;2.00;;
69246;SDS011;56358;56.328;43.992;2023-07-24T11:52:55;6.85;;;3.83;;
69246;SDS011;56358;56.328;43.992;2023-07-24T11:54:56;2.70;;;1.67;;
69246;SDS011;56358;56.328;43.992;2023-07-24T11:57:14;4.00;;;1.88;;
69246;SDS011;56358;56.328;43.992;2023-07-24T11:59:15;3.33;;;1.88;;
69246;SDS011;56358;56.328;43.992;2023-07-24T12:01:16;3.85;;;1.95;;
69246;SDS011;56358;56.328;43.992;2023-07-24T12:03:26;3.28;;;1.70;;
69246;SDS011;56358;56.328;43.992;2023-07-24T12:05:29;4.55;;;2.30;;
69246;SDS011;56358;56.328;43.992;2023-07-24T12:07:37;5.63;;;2.28;;
69246;SDS011;56358;56.328;43.992;2023-07-24T12:09:38;3.55;;;1.80;;
69246;SDS011;56358;56.328;43.992;2023-07-24T12:11:42;5.45;;;2.10;;